sensor_id;sensor_type;location;lat;lon;timestamp;noise_LAeq;noise_LA_min;noise_LA_max;noise_LA01;noise_LA95
42701;Laerm;28316;49.504;8.526;2023-04-25T00:01:32;38.00;33.90;56.49;;
42701;Laerm;28316;49.504;8.526;2023-04-25T00:04:02;36.79;32.93;39.46;;
42701;Laerm;28316;49.504;8.526;2023-04-25T00:06:29;36.55;30.89;51.26;;
42701;Laerm;28316;49.504;8.526;2023-04-25T00:08:55;38.83;30.89;71.41;;
42701;Laerm;28316;49.504;8.526;2023-04-25T00:11:23;36.33;29.92;50.17;;
42701;Laerm;28316;49.504;8.526;2023-04-25T00:13:49;36.32;29.92;39.70;;
42701;Laerm;28316;49.504;8.526;2023-04-25T00:16:16;36.27;29.92;39.34;;
42701;Laerm;28316;49.504;8.526;2023-04-25T00:18:42;36.23;30.89;46.66;;
42701;Laerm;28316;49.504;8.526;2023-04-25T00:21:08;36.23;30.89;53.67;;
42701;Laerm;28316;49.504;8.526;2023-04-25T00:23:34;36.15;28.67;40.43;;
42701;Laerm;28316;49.504;8.526;2023-04-25T00:26:02;36.13;28.67;48.76;;
42701;Laerm;28316;49.504;8.526;2023-04-25T00:28:28;36.04;29.92;40.03;;
42701;Laerm;28316;49.504;8.526;2023-04-25T00:30:54;36.08;26.91;52.82;;
42701;Laerm;28316;49.504;8.526;2023-04-25T00:33:19;35.95;28.67;39.34;;
42701;Laerm;28316;49.504;8.526;2023-04-25T00:35:45;35.93;29.92;39.21;;
42701;Laerm;28316;49.504;8.526;2023-04-25T00:38:11;35.90;28.67;39.21;;
42701;Laerm;28316;49.504;8.526;2023-04-25T00:40:37;35.87;28.67;38.95;;
42701;Laerm;28316;49.504;8.526;2023-04-25T00:43:03;35.90;23.90;40.33;;
42701;Laerm;28316;49.504;8.526;2023-04-25T00:45:29;35.95;29.57;39.34;;
42701;Laerm;28316;49.504;8.526;2023-04-25T00:47:56;36.07;26.91;39.35;;
42701;Laerm;28316;49.504;8.526;2023-04-25T00:50:23;36.49;28.67;39.21;;
42701;Laerm;28316;49.504;8.526;2023-04-25T00:52:49;36.30;28.67;39.46;;
42701;Laerm;28316;49.504;8.526;2023-04-25T00:55:15;36.07;26.91;38.95;;
42701;Laerm;28316;49.504;8.526;2023-04-25T00:57:42;36.22;28.67;39.46;;
42701;Laerm;28316;49.504;8.526;2023-04-25T01:00:09;36.52;31.68;39.08;;
42701;Laerm;28316;49.504;8.526;2023-04-25T01:02:37;37.09;33.44;40.13;;
42701;Laerm;28316;49.504;8.526;2023-04-25T01:05:03;37.27;34.31;39.58;;
42701;Laerm;28316;49.504;8.526;2023-04-25T01:07:29;37.29;33.44;40.13;;
42701;Laerm;28316;49.504;8.526;2023-04-25T01:09:56;37.44;33.90;40.23;;
42701;Laerm;28316;49.504;8.526;2023-04-25T01:12:23;37.65;34.31;39.92;;
42701;Laerm;28316;49.504;8.526;2023-04-25T01:14:49;37.67;34.31;39.70;;
42701;Laerm;28316;49.504;8.526;2023-04-25T01:17:15;37.78;34.69;40.13;;
42701;Laerm;28316;49.504;8.526;2023-04-25T01:19:41;37.81;35.04;40.03;;
42701;Laerm;28316;49.504;8.526;2023-04-25T01:22:07;37.72;35.04;40.62;;
42701;Laerm;28316;49.504;8.526;2023-04-25T01:24:35;37.78;34.31;40.13;;
42701;Laerm;28316;49.504;8.526;2023-04-25T01:27:02;37.77;34.69;40.33;;
42701;Laerm;28316;49.504;8.526;2023-04-25T01:29:29;37.90;35.04;40.03;;
42701;Laerm;28316;49.504;8.526;2023-04-25T01:31:55;37.34;33.44;40.13;;
42701;Laerm;28316;49.504;8.526;2023-04-25T01:34:23;36.83;32.35;39.58;;
42701;Laerm;28316;49.504;8.526;2023-04-25T01:36:50;36.56;31.68;48.34;;
42701;Laerm;28316;49.504;8.526;2023-04-25T01:39:17;36.36;30.89;39.08;;
42701;Laerm;28316;49.504;8.526;2023-04-25T01:41:45;36.29;28.67;39.21;;
42701;Laerm;28316;49.504;8.526;2023-04-25T01:44:11;36.25;28.67;39.21;;
42701;Laerm;28316;49.504;8.526;2023-04-25T01:46:37;36.30;30.54;45.42;;
42701;Laerm;28316;49.504;8.526;2023-04-25T01:49:03;36.22;30.89;39.34;;
42701;Laerm;28316;49.504;8.526;2023-04-25T01:51:29;36.24;23.90;39.58;;
42701;Laerm;28316;49.504;8.526;2023-04-25T01:53:56;36.51;29.92;53.46;;
42701;Laerm;28316;49.504;8.526;2023-04-25T01:56:22;36.25;26.91;39.92;;
42701;Laerm;28316;49.504;8.526;2023-04-25T01:58:48;36.07;28.67;39.34;;
42701;Laerm;28316;49.504;8.526;2023-04-25T02:01:14;36.12;28.32;39.21;;
42701;Laerm;28316;49.504;8.526;2023-04-25T02:03:40;36.15;29.92;39.21;;
42701;Laerm;28316;49.504;8.526;2023-04-25T02:06:06;37.68;29.92;56.82;;
42701;Laerm;28316;49.504;8.526;2023-04-25T02:08:32;38.04;34.31;39.92;;
42701;Laerm;28316;49.504;8.526;2023-04-25T02:10:58;38.25;33.90;39.92;;
42701;Laerm;28316;49.504;8.526;2023-04-25T02:13:23;38.35;34.31;39.92;;
42701;Laerm;28316;49.504;8.526;2023-04-25T02:15:49;38.38;34.69;40.33;;
42701;Laerm;28316;49.504;8.526;2023-04-25T02:18:15;38.56;34.31;40.23;;
42701;Laerm;28316;49.504;8.526;2023-04-25T02:20:44;38.81;36.56;40.53;;
42701;Laerm;28316;49.504;8.526;2023-04-25T02:23:10;38.70;36.20;40.33;;
42701;Laerm;28316;49.504;8.526;2023-04-25T02:25:36;38.74;36.91;40.80;;
42701;Laerm;28316;49.504;8.526;2023-04-25T02:28:02;38.82;36.45;40.33;;
42701;Laerm;28316;49.504;8.526;2023-04-25T02:30:28;38.74;34.69;41.89;;
42701;Laerm;28316;49.504;8.526;2023-04-25T02:32:54;38.86;36.69;40.43;;
42701;Laerm;28316;49.504;8.526;2023-04-25T02:35:19;38.88;36.69;40.33;;
42701;Laerm;28316;49.504;8.526;2023-04-25T02:37:45;39.21;37.32;40.71;;
42701;Laerm;28316;49.504;8.526;2023-04-25T02:40:11;39.03;37.12;47.50;;
42701;Laerm;28316;49.504;8.526;2023-04-25T02:42:37;39.05;36.91;40.98;;
42701;Laerm;28316;49.504;8.526;2023-04-25T02:45:03;39.31;36.91;41.14;;
42701;Laerm;28316;49.504;8.526;2023-04-25T02:47:29;39.49;37.70;40.80;;
42701;Laerm;28316;49.504;8.526;2023-04-25T02:49:55;39.49;37.88;40.89;;
42701;Laerm;28316;49.504;8.526;2023-04-25T02:52:20;39.43;37.87;40.98;;
42701;Laerm;28316;49.504;8.526;2023-04-25T02:54:46;39.41;37.88;40.80;;
42701;Laerm;28316;49.504;8.526;2023-04-25T02:57:12;39.35;37.52;40.71;;
42701;Laerm;28316;49.504;8.526;2023-04-25T02:59:38;39.30;37.52;40.80;;
42701;Laerm;28316;49.504;8.526;2023-04-25T03:02:04;39.27;37.32;40.62;;
42701;Laerm;28316;49.504;8.526;2023-04-25T03:04:29;39.52;37.87;40.89;;
42701;Laerm;28316;49.504;8.526;2023-04-25T03:06:55;39.60;37.88;40.80;;
42701;Laerm;28316;49.504;8.526;2023-04-25T03:09:21;39.63;38.05;43.04;;
42701;Laerm;28316;49.504;8.526;2023-04-25T03:11:47;39.65;37.88;40.98;;
42701;Laerm;28316;49.504;8.526;2023-04-25T03:14:13;39.85;37.88;62.67;;
42701;Laerm;28316;49.504;8.526;2023-04-25T03:16:39;39.53;37.88;40.89;;
42701;Laerm;28316;49.504;8.526;2023-04-25T03:19:05;39.55;37.88;40.89;;
42701;Laerm;28316;49.504;8.526;2023-04-25T03:21:33;39.59;37.87;40.98;;
42701;Laerm;28316;49.504;8.526;2023-04-25T03:24:01;39.58;37.70;40.80;;
42701;Laerm;28316;49.504;8.526;2023-04-25T03:26:29;39.56;37.88;40.89;;
42701;Laerm;28316;49.504;8.526;2023-04-25T03:28:54;39.62;37.87;40.89;;
42701;Laerm;28316;49.504;8.526;2023-04-25T03:31:20;39.53;37.52;40.89;;
42701;Laerm;28316;49.504;8.526;2023-04-25T03:33:47;39.35;37.52;40.89;;
42701;Laerm;28316;49.504;8.526;2023-04-25T03:36:13;39.39;37.52;40.80;;
42701;Laerm;28316;49.504;8.526;2023-04-25T03:38:38;39.16;37.17;40.53;;
42701;Laerm;28316;49.504;8.526;2023-04-25T03:41:04;39.14;37.12;40.43;;
42701;Laerm;28316;49.504;8.526;2023-04-25T03:43:30;39.04;37.12;40.53;;
42701;Laerm;28316;49.504;8.526;2023-04-25T03:45:56;39.00;36.91;42.76;;
42701;Laerm;28316;49.504;8.526;2023-04-25T03:48:21;39.13;37.12;40.89;;
42701;Laerm;28316;49.504;8.526;2023-04-25T03:50:50;39.29;37.52;40.89;;
42701;Laerm;28316;49.504;8.526;2023-04-25T03:53:16;39.60;37.70;41.14;;
42701;Laerm;28316;49.504;8.526;2023-04-25T03:55:41;40.06;38.52;41.30;;
42701;Laerm;28316;49.504;8.526;2023-04-25T03:58:07;40.15;38.67;41.30;;
42701;Laerm;28316;49.504;8.526;2023-04-25T04:00:35;40.15;38.81;41.22;;
42701;Laerm;28316;49.504;8.526;2023-04-25T04:03:01;40.24;38.81;41.61;;
42701;Laerm;28316;49.504;8.526;2023-04-25T04:05:26;40.20;38.81;41.38;;
42701;Laerm;28316;49.504;8.526;2023-04-25T04:07:53;40.21;38.67;41.38;;
42701;Laerm;28316;49.504;8.526;2023-04-25T04:10:19;40.22;38.81;41.46;;
42701;Laerm;28316;49.504;8.526;2023-04-25T04:12:45;40.25;38.74;41.38;;
42701;Laerm;28316;49.504;8.526;2023-04-25T04:15:11;40.25;38.81;41.38;;
42701;Laerm;28316;49.504;8.526;2023-04-25T04:17:37;40.33;38.95;41.46;;
42701;Laerm;28316;49.504;8.526;2023-04-25T04:20:04;40.38;39.08;41.46;;
42701;Laerm;28316;49.504;8.526;2023-04-25T04:22:31;40.36;38.95;41.46;;
42701;Laerm;28316;49.504;8.526;2023-04-25T04:24:57;40.34;38.95;41.46;;
42701;Laerm;28316;49.504;8.526;2023-04-25T04:27:23;40.37;38.95;41.46;;
42701;Laerm;28316;49.504;8.526;2023-04-25T04:29:49;40.39;38.95;41.46;;
42701;Laerm;28316;49.504;8.526;2023-04-25T04:32:16;40.34;38.95;41.68;;
42701;Laerm;28316;49.504;8.526;2023-04-25T04:34:43;40.21;38.81;41.46;;
42701;Laerm;28316;49.504;8.526;2023-04-25T04:37:08;40.11;38.52;41.46;;
42701;Laerm;28316;49.504;8.526;2023-04-25T04:39:36;39.90;38.37;41.06;;
42701;Laerm;28316;49.504;8.526;2023-04-25T04:42:02;39.81;38.21;41.06;;
42701;Laerm;28316;49.504;8.526;2023-04-25T04:44:29;39.68;37.88;40.98;;
42701;Laerm;28316;49.504;8.526;2023-04-25T04:46:59;39.50;37.70;40.80;;
42701;Laerm;28316;49.504;8.526;2023-04-25T04:49:24;39.27;37.12;40.71;;
42701;Laerm;28316;49.504;8.526;2023-04-25T04:51:50;39.07;36.69;40.62;;
42701;Laerm;28316;49.504;8.526;2023-04-25T04:54:16;38.71;36.20;40.33;;
42701;Laerm;28316;49.504;8.526;2023-04-25T04:56:42;38.07;32.93;39.81;;
42701;Laerm;28316;49.504;8.526;2023-04-25T04:59:08;37.75;29.92;39.92;;
42701;Laerm;28316;49.504;8.526;2023-04-25T05:01:34;37.62;31.68;39.70;;
42701;Laerm;28316;49.504;8.526;2023-04-25T05:04:02;37.13;26.91;39.46;;
42701;Laerm;28316;49.504;8.526;2023-04-25T05:06:29;36.96;28.67;39.81;;
42701;Laerm;28316;49.504;8.526;2023-04-25T05:08:57;36.80;29.57;39.46;;
42701;Laerm;28316;49.504;8.526;2023-04-25T05:11:24;36.63;26.91;39.46;;
42701;Laerm;28316;49.504;8.526;2023-04-25T05:13:52;36.48;5.00;39.21;;
42701;Laerm;28316;49.504;8.526;2023-04-25T05:16:18;36.38;23.90;39.58;;
42701;Laerm;28316;49.504;8.526;2023-04-25T05:18:44;36.20;26.91;39.34;;
42701;Laerm;28316;49.504;8.526;2023-04-25T05:21:09;36.08;28.67;39.46;;
42701;Laerm;28316;49.504;8.526;2023-04-25T05:23:35;36.04;26.91;39.21;;
42701;Laerm;28316;49.504;8.526;2023-04-25T05:26:01;35.94;23.90;39.08;;
42701;Laerm;28316;49.504;8.526;2023-04-25T05:28:27;35.85;23.90;39.34;;
42701;Laerm;28316;49.504;8.526;2023-04-25T05:30:53;35.77;5.00;39.21;;
42701;Laerm;28316;49.504;8.526;2023-04-25T05:33:19;35.92;23.90;39.21;;
42701;Laerm;28316;49.504;8.526;2023-04-25T05:35:45;36.29;26.91;39.58;;
42701;Laerm;28316;49.504;8.526;2023-04-25T05:38:10;36.52;23.90;39.21;;
42701;Laerm;28316;49.504;8.526;2023-04-25T05:40:37;36.71;26.91;39.46;;
42701;Laerm;28316;49.504;8.526;2023-04-25T05:43:03;37.55;30.89;39.70;;
42701;Laerm;28316;49.504;8.526;2023-04-25T05:45:28;38.16;33.44;40.08;;
42701;Laerm;28316;49.504;8.526;2023-04-25T05:47:54;38.70;36.69;40.62;;
42701;Laerm;28316;49.504;8.526;2023-04-25T05:50:20;38.38;33.44;40.43;;
42701;Laerm;28316;49.504;8.526;2023-04-25T05:52:46;36.95;29.92;39.34;;
42701;Laerm;28316;49.504;8.526;2023-04-25T05:55:11;36.06;26.91;39.21;;
42701;Laerm;28316;49.504;8.526;2023-04-25T05:57:37;35.82;5.00;39.70;;
42701;Laerm;28316;49.504;8.526;2023-04-25T06:00:08;35.77;26.91;39.21;;
42701;Laerm;28316;49.504;8.526;2023-04-25T06:02:35;35.84;28.67;39.21;;
42701;Laerm;28316;49.504;8.526;2023-04-25T06:05:01;35.95;28.67;39.21;;
42701;Laerm;28316;49.504;8.526;2023-04-25T06:07:29;36.01;28.67;39.34;;
42701;Laerm;28316;49.504;8.526;2023-04-25T06:09:56;36.08;29.92;39.21;;
42701;Laerm;28316;49.504;8.526;2023-04-25T06:12:22;36.26;29.92;39.08;;
42701;Laerm;28316;49.504;8.526;2023-04-25T06:14:48;36.54;29.92;39.21;;
42701;Laerm;28316;49.504;8.526;2023-04-25T06:17:14;36.99;32.93;39.58;;
42701;Laerm;28316;49.504;8.526;2023-04-25T06:19:39;37.22;33.90;40.23;;
42701;Laerm;28316;49.504;8.526;2023-04-25T06:22:07;37.28;33.44;39.81;;
42701;Laerm;28316;49.504;8.526;2023-04-25T06:24:34;37.32;33.44;39.92;;
42701;Laerm;28316;49.504;8.526;2023-04-25T06:27:00;37.31;34.31;39.81;;
42701;Laerm;28316;49.504;8.526;2023-04-25T06:29:26;37.35;33.44;39.92;;
42701;Laerm;28316;49.504;8.526;2023-04-25T06:31:52;37.42;34.31;39.92;;
42701;Laerm;28316;49.504;8.526;2023-04-25T06:34:18;37.58;34.69;40.03;;
42701;Laerm;28316;49.504;8.526;2023-04-25T06:36:43;37.46;33.90;39.92;;
42701;Laerm;28316;49.504;8.526;2023-04-25T06:39:10;37.10;32.93;39.81;;
42701;Laerm;28316;49.504;8.526;2023-04-25T06:41:36;37.27;33.44;40.03;;
42701;Laerm;28316;49.504;8.526;2023-04-25T06:44:02;37.26;34.31;39.70;;
42701;Laerm;28316;49.504;8.526;2023-04-25T06:46:28;37.47;34.31;40.03;;
42701;Laerm;28316;49.504;8.526;2023-04-25T06:48:54;37.65;34.31;40.03;;
42701;Laerm;28316;49.504;8.526;2023-04-25T06:51:19;37.66;33.44;39.92;;
42701;Laerm;28316;49.504;8.526;2023-04-25T06:53:45;37.76;35.01;40.33;;
42701;Laerm;28316;49.504;8.526;2023-04-25T06:56:11;37.94;35.36;40.33;;
42701;Laerm;28316;49.504;8.526;2023-04-25T06:58:37;38.21;35.66;40.23;;
42701;Laerm;28316;49.504;8.526;2023-04-25T07:01:03;38.48;35.94;40.71;;
42701;Laerm;28316;49.504;8.526;2023-04-25T07:03:29;38.77;36.45;40.53;;
42701;Laerm;28316;49.504;8.526;2023-04-25T07:05:54;39.06;36.69;41.06;;
42701;Laerm;28316;49.504;8.526;2023-04-25T07:08:20;39.19;36.91;40.80;;
42701;Laerm;28316;49.504;8.526;2023-04-25T07:10:46;39.13;36.91;41.06;;
42701;Laerm;28316;49.504;8.526;2023-04-25T07:13:12;39.14;37.12;40.98;;
42701;Laerm;28316;49.504;8.526;2023-04-25T07:15:38;39.16;36.91;40.89;;
42701;Laerm;28316;49.504;8.526;2023-04-25T07:18:04;39.24;36.91;41.14;;
42701;Laerm;28316;49.504;8.526;2023-04-25T07:20:30;39.09;34.69;41.30;;
42701;Laerm;28316;49.504;8.526;2023-04-25T07:22:57;37.04;32.93;53.24;;
42701;Laerm;28316;49.504;8.526;2023-04-25T07:25:23;38.67;35.36;40.89;;
42701;Laerm;28316;49.504;8.526;2023-04-25T07:27:48;39.33;37.32;41.22;;
42701;Laerm;28316;49.504;8.526;2023-04-25T07:30:14;39.63;37.52;41.30;;
42701;Laerm;28316;49.504;8.526;2023-04-25T07:32:40;39.80;38.02;41.38;;
42701;Laerm;28316;49.504;8.526;2023-04-25T07:35:06;39.85;37.70;41.38;;
42701;Laerm;28316;49.504;8.526;2023-04-25T07:37:36;39.93;37.88;41.46;;
42701;Laerm;28316;49.504;8.526;2023-04-25T07:40:03;39.81;37.88;41.38;;
42701;Laerm;28316;49.504;8.526;2023-04-25T07:42:30;39.88;37.88;42.03;;
42701;Laerm;28316;49.504;8.526;2023-04-25T07:44:56;40.06;38.05;41.68;;
42701;Laerm;28316;49.504;8.526;2023-04-25T07:47:21;40.14;38.37;41.75;;
42701;Laerm;28316;49.504;8.526;2023-04-25T07:49:47;40.27;38.52;41.75;;
42701;Laerm;28316;49.504;8.526;2023-04-25T07:52:13;40.41;38.52;41.75;;
42701;Laerm;28316;49.504;8.526;2023-04-25T07:54:39;40.47;38.95;41.96;;
42701;Laerm;28316;49.504;8.526;2023-04-25T07:57:07;40.55;38.81;41.89;;
42701;Laerm;28316;49.504;8.526;2023-04-25T07:59:33;40.70;39.08;41.96;;
42701;Laerm;28316;49.504;8.526;2023-04-25T08:01:59;40.78;38.81;41.96;;
42701;Laerm;28316;49.504;8.526;2023-04-25T08:04:25;40.93;39.46;42.16;;
42701;Laerm;28316;49.504;8.526;2023-04-25T08:06:51;41.05;39.46;42.35;;
42701;Laerm;28316;49.504;8.526;2023-04-25T08:09:20;41.17;39.70;42.59;;
42701;Laerm;28316;49.504;8.526;2023-04-25T08:11:46;41.23;39.81;42.47;;
42701;Laerm;28316;49.504;8.526;2023-04-25T08:14:13;41.31;39.81;42.59;;
42701;Laerm;28316;49.504;8.526;2023-04-25T08:16:39;41.43;40.03;42.71;;
42701;Laerm;28316;49.504;8.526;2023-04-25T08:19:05;41.59;40.13;42.82;;
42701;Laerm;28316;49.504;8.526;2023-04-25T08:21:31;41.65;40.23;42.88;;
42701;Laerm;28316;49.504;8.526;2023-04-25T08:23:58;41.79;40.43;42.93;;
42701;Laerm;28316;49.504;8.526;2023-04-25T08:26:24;41.76;40.03;42.88;;
42701;Laerm;28316;49.504;8.526;2023-04-25T08:28:50;41.69;40.33;43.94;;
42701;Laerm;28316;49.504;8.526;2023-04-25T08:31:16;41.75;40.13;44.35;;
42701;Laerm;28316;49.504;8.526;2023-04-25T08:33:42;41.71;40.13;42.88;;
42701;Laerm;28316;49.504;8.526;2023-04-25T08:36:09;41.67;40.13;42.82;;
42701;Laerm;28316;49.504;8.526;2023-04-25T08:38:35;41.65;40.23;42.76;;
42701;Laerm;28316;49.504;8.526;2023-04-25T08:41:02;41.74;40.13;45.91;;
42701;Laerm;28316;49.504;8.526;2023-04-25T08:43:29;41.84;40.43;47.10;;
42701;Laerm;28316;49.504;8.526;2023-04-25T08:46:00;41.88;40.62;43.04;;
42701;Laerm;28316;49.504;8.526;2023-04-25T08:48:28;41.89;40.43;43.09;;
42701;Laerm;28316;49.504;8.526;2023-04-25T08:50:56;41.90;40.23;43.09;;
42701;Laerm;28316;49.504;8.526;2023-04-25T08:53:30;41.86;40.23;43.58;;
42701;Laerm;28316;49.504;8.526;2023-04-25T08:55:59;41.79;40.43;43.19;;
42701;Laerm;28316;49.504;8.526;2023-04-25T08:58:28;41.78;40.23;43.44;;
42701;Laerm;28316;49.504;8.526;2023-04-25T09:00:54;41.72;39.58;42.88;;
42701;Laerm;28316;49.504;8.526;2023-04-25T09:03:19;41.67;39.81;43.09;;
42701;Laerm;28316;49.504;8.526;2023-04-25T09:05:45;41.60;39.81;43.34;;
42701;Laerm;28316;49.504;8.526;2023-04-25T09:08:11;41.61;39.92;42.88;;
42701;Laerm;28316;49.504;8.526;2023-04-25T09:10:38;41.57;40.03;42.98;;
42701;Laerm;28316;49.504;8.526;2023-04-25T09:13:14;41.57;39.81;43.34;;
42701;Laerm;28316;49.504;8.526;2023-04-25T09:15:54;41.53;39.92;43.04;;
42701;Laerm;28316;49.504;8.526;2023-04-25T09:18:27;41.45;39.70;42.71;;
42701;Laerm;28316;49.504;8.526;2023-04-25T09:20:56;41.52;39.70;44.51;;
42701;Laerm;28316;49.504;8.526;2023-04-25T09:23:23;41.59;39.46;45.51;;
42701;Laerm;28316;49.504;8.526;2023-04-25T09:25:51;41.55;39.81;43.29;;
42701;Laerm;28316;49.504;8.526;2023-04-25T09:28:24;41.59;40.03;50.77;;
42701;Laerm;28316;49.504;8.526;2023-04-25T09:30:55;41.45;39.46;43.80;;
42701;Laerm;28316;49.504;8.526;2023-04-25T09:33:33;41.43;39.58;44.83;;
42701;Laerm;28316;49.504;8.526;2023-04-25T09:38:41;41.43;39.70;43.09;;
42701;Laerm;28316;49.504;8.526;2023-04-25T09:41:08;41.44;39.58;42.82;;
42701;Laerm;28316;49.504;8.526;2023-04-25T09:43:35;41.44;39.34;42.98;;
42701;Laerm;28316;49.504;8.526;2023-04-25T09:46:01;41.50;39.81;42.82;;
42701;Laerm;28316;49.504;8.526;2023-04-25T09:48:28;41.48;39.70;42.76;;
42701;Laerm;28316;49.504;8.526;2023-04-25T09:51:10;41.48;39.58;43.24;;
42701;Laerm;28316;49.504;8.526;2023-04-25T09:53:41;41.48;39.81;43.09;;
42701;Laerm;28316;49.504;8.526;2023-04-25T09:56:10;41.49;39.81;42.82;;
42701;Laerm;28316;49.504;8.526;2023-04-25T09:58:39;41.50;39.92;43.09;;
42701;Laerm;28316;49.504;8.526;2023-04-25T10:01:08;41.50;39.70;43.04;;
42701;Laerm;28316;49.504;8.526;2023-04-25T10:03:37;41.46;39.58;44.54;;
42701;Laerm;28316;49.504;8.526;2023-04-25T10:06:18;41.33;39.58;42.98;;
42701;Laerm;28316;49.504;8.526;2023-04-25T10:08:44;41.12;39.34;42.93;;
42701;Laerm;28316;49.504;8.526;2023-04-25T10:11:12;40.96;38.81;43.94;;
42701;Laerm;28316;49.504;8.526;2023-04-25T10:13:41;40.93;38.67;44.76;;
42701;Laerm;28316;49.504;8.526;2023-04-25T10:16:08;40.77;38.21;42.29;;
42701;Laerm;28316;49.504;8.526;2023-04-25T10:18:34;40.72;38.21;43.39;;
42701;Laerm;28316;49.504;8.526;2023-04-25T10:21:02;40.61;38.21;45.36;;
42701;Laerm;28316;49.504;8.526;2023-04-25T10:23:30;40.59;38.37;42.41;;
42701;Laerm;28316;49.504;8.526;2023-04-25T10:25:57;40.67;38.37;42.47;;
42701;Laerm;28316;49.504;8.526;2023-04-25T10:28:24;40.56;38.21;44.15;;
42701;Laerm;28316;49.504;8.526;2023-04-25T10:31:10;40.62;37.88;43.94;;
42701;Laerm;28316;49.504;8.526;2023-04-25T10:33:38;40.89;38.81;45.04;;
42701;Laerm;28316;49.504;8.526;2023-04-25T10:36:34;41.10;38.67;48.18;;
42701;Laerm;28316;49.504;8.526;2023-04-25T10:39:04;41.19;39.08;47.96;;
42701;Laerm;28316;49.504;8.526;2023-04-25T10:41:52;41.06;39.21;42.47;;
42701;Laerm;28316;49.504;8.526;2023-04-25T10:44:18;41.11;38.81;44.27;;
42701;Laerm;28316;49.504;8.526;2023-04-25T10:46:45;41.05;39.08;44.15;;
42701;Laerm;28316;49.504;8.526;2023-04-25T10:49:42;40.94;38.67;43.86;;
42701;Laerm;28316;49.504;8.526;2023-04-25T10:52:14;40.84;38.95;42.71;;
42701;Laerm;28316;49.504;8.526;2023-04-25T10:55:03;40.87;38.37;42.71;;
42701;Laerm;28316;49.504;8.526;2023-04-25T11:00:16;40.82;38.95;42.65;;
42701;Laerm;28316;49.504;8.526;2023-04-25T11:02:57;40.98;38.81;53.02;;
42701;Laerm;28316;49.504;8.526;2023-04-25T11:05:34;40.87;38.67;47.61;;
42701;Laerm;28316;49.504;8.526;2023-04-25T11:08:01;40.89;38.67;45.39;;
42701;Laerm;28316;49.504;8.526;2023-04-25T11:10:31;41.04;38.37;47.04;;
42701;Laerm;28316;49.504;8.526;2023-04-25T11:13:00;40.85;38.95;44.16;;
42701;Laerm;28316;49.504;8.526;2023-04-25T11:15:26;40.84;38.37;42.88;;
42701;Laerm;28316;49.504;8.526;2023-04-25T11:17:53;40.97;38.21;47.76;;
42701;Laerm;28316;49.504;8.526;2023-04-25T11:20:19;40.84;38.37;47.10;;
42701;Laerm;28316;49.504;8.526;2023-04-25T11:22:46;40.83;38.52;44.03;;
42701;Laerm;28316;49.504;8.526;2023-04-25T11:25:16;40.93;38.52;49.16;;
42701;Laerm;28316;49.504;8.526;2023-04-25T11:27:57;41.07;38.52;45.01;;
42701;Laerm;28316;49.504;8.526;2023-04-25T11:30:25;40.83;38.52;43.81;;
42701;Laerm;28316;49.504;8.526;2023-04-25T11:32:51;40.72;38.81;43.81;;
42701;Laerm;28316;49.504;8.526;2023-04-25T11:35:19;40.75;38.52;44.51;;
42701;Laerm;28316;49.504;8.526;2023-04-25T11:37:48;40.63;38.21;44.97;;
42701;Laerm;28316;49.504;8.526;2023-04-25T11:40:15;40.53;37.88;42.03;;
42701;Laerm;28316;49.504;8.526;2023-04-25T11:42:46;40.50;37.88;42.53;;
42701;Laerm;28316;49.504;8.526;2023-04-25T11:45:12;40.52;38.21;43.63;;
42701;Laerm;28316;49.504;8.526;2023-04-25T11:47:39;40.40;37.88;44.07;;
42701;Laerm;28316;49.504;8.526;2023-04-25T11:50:08;40.34;37.12;47.42;;
42701;Laerm;28316;49.504;8.526;2023-04-25T11:52:42;40.38;37.88;44.19;;
42701;Laerm;28316;49.504;8.526;2023-04-25T11:55:13;40.32;37.88;42.35;;
42701;Laerm;28316;49.504;8.526;2023-04-25T11:57:40;40.29;37.52;42.82;;
42701;Laerm;28316;49.504;8.526;2023-04-25T12:00:15;40.49;37.70;49.04;;
42701;Laerm;28316;49.504;8.526;2023-04-25T12:02:44;40.44;37.70;46.66;;
42701;Laerm;28316;49.504;8.526;2023-04-25T12:05:12;40.60;37.88;50.79;;
42701;Laerm;28316;49.504;8.526;2023-04-25T12:07:38;40.59;37.70;47.96;;
42701;Laerm;28316;49.504;8.526;2023-04-25T12:10:12;40.49;37.88;43.81;;
42701;Laerm;28316;49.504;8.526;2023-04-25T12:12:42;40.54;38.21;47.04;;
42701;Laerm;28316;49.504;8.526;2023-04-25T12:15:16;40.69;37.70;44.73;;
42701;Laerm;28316;49.504;8.526;2023-04-25T12:17:49;40.50;37.88;47.63;;
42701;Laerm;28316;49.504;8.526;2023-04-25T12:20:20;40.40;37.88;46.76;;
42701;Laerm;28316;49.504;8.526;2023-04-25T12:22:47;40.48;38.05;43.04;;
42701;Laerm;28316;49.504;8.526;2023-04-25T12:25:40;40.41;37.70;43.09;;
42701;Laerm;28316;49.504;8.526;2023-04-25T12:28:19;40.63;38.21;43.58;;
42701;Laerm;28316;49.504;8.526;2023-04-25T12:30:56;40.47;37.88;44.90;;
42701;Laerm;28316;49.504;8.526;2023-04-25T12:33:33;40.42;37.32;42.76;;
42701;Laerm;28316;49.504;8.526;2023-04-25T12:36:01;40.50;38.37;42.53;;
42701;Laerm;28316;49.504;8.526;2023-04-25T12:38:40;40.51;38.05;42.59;;
42701;Laerm;28316;49.504;8.526;2023-04-25T12:41:07;40.69;38.37;44.11;;
42701;Laerm;28316;49.504;8.526;2023-04-25T12:43:34;40.55;38.21;43.29;;
42701;Laerm;28316;49.504;8.526;2023-04-25T12:46:00;40.41;38.21;42.16;;
42701;Laerm;28316;49.504;8.526;2023-04-25T12:48:26;40.43;38.05;42.29;;
42701;Laerm;28316;49.504;8.526;2023-04-25T12:50:52;40.43;37.70;42.93;;
42701;Laerm;28316;49.504;8.526;2023-04-25T12:53:23;40.43;37.88;43.34;;
42701;Laerm;28316;49.504;8.526;2023-04-25T12:55:50;40.41;38.05;42.29;;
42701;Laerm;28316;49.504;8.526;2023-04-25T12:58:18;40.39;38.05;42.09;;
42701;Laerm;28316;49.504;8.526;2023-04-25T13:00:45;40.40;37.70;43.19;;
42701;Laerm;28316;49.504;8.526;2023-04-25T13:03:11;40.32;38.05;43.24;;
42701;Laerm;28316;49.504;8.526;2023-04-25T13:05:38;40.24;37.52;42.88;;
42701;Laerm;28316;49.504;8.526;2023-04-25T13:08:04;40.24;37.88;45.48;;
42701;Laerm;28316;49.504;8.526;2023-04-25T13:10:30;40.36;37.88;44.62;;
42701;Laerm;28316;49.504;8.526;2023-04-25T13:12:56;40.38;37.52;45.07;;
42701;Laerm;28316;49.504;8.526;2023-04-25T13:15:22;40.34;38.05;47.34;;
42701;Laerm;28316;49.504;8.526;2023-04-25T13:17:48;40.43;37.88;46.28;;
42701;Laerm;28316;49.504;8.526;2023-04-25T13:20:14;40.40;37.32;43.24;;
42701;Laerm;28316;49.504;8.526;2023-04-25T13:22:42;40.75;37.52;51.76;;
42701;Laerm;28316;49.504;8.526;2023-04-25T13:25:08;40.19;37.52;42.03;;
42701;Laerm;28316;49.504;8.526;2023-04-25T13:27:36;40.29;37.70;43.19;;
42701;Laerm;28316;49.504;8.526;2023-04-25T13:30:04;40.28;37.70;42.93;;
42701;Laerm;28316;49.504;8.526;2023-04-25T13:32:34;40.22;37.88;42.71;;
42701;Laerm;28316;49.504;8.526;2023-04-25T13:35:03;40.19;37.32;43.68;;
42701;Laerm;28316;49.504;8.526;2023-04-25T13:37:30;40.15;37.52;41.89;;
42701;Laerm;28316;49.504;8.526;2023-04-25T13:40:00;40.19;37.88;42.09;;
42701;Laerm;28316;49.504;8.526;2023-04-25T13:42:26;40.23;37.32;42.35;;
42701;Laerm;28316;49.504;8.526;2023-04-25T13:44:51;40.36;37.88;46.82;;
42701;Laerm;28316;49.504;8.526;2023-04-25T13:47:17;40.55;38.05;45.51;;
42701;Laerm;28316;49.504;8.526;2023-04-25T13:49:43;40.31;37.88;43.68;;
42701;Laerm;28316;49.504;8.526;2023-04-25T13:52:09;40.34;37.32;44.65;;